Four Corners, Wyoming
Current Conditions -  °F | °C
As of 12:15 PM on Thursday 30 Oct 2014 (Local Time) from KECS Reporting Station
Clear Clear  
Wind Chill: 54°   Ceiling: Unl
Heat Index: 54°   Visibility: 10mi
Dew Point: 32°   Wind: 15mph
Humidity: 44%   Direction: 320°NW
Pressure: 30.34"   Gusts: 18mph
Location:  44.08°N, 104.14°W
Report Text: KECS 301815Z AUTO 32013G16KT 10SM CLR 12/00 A3034 RMK AO2
Loading
Personal Weather Stations






























Interactive Weather Map
Tropical Storm Tracking
New forecast layout! Learn more

10-Day Weather Forecast

Advertisements
Track Severe Weather on mobile